createdAt,value
2023-04-08T00:01:41.432Z,7.34
2023-04-08T00:06:44.610Z,7.20
2023-04-08T00:11:40.338Z,7.21
2023-04-08T00:16:31.639Z,7.21
2023-04-08T00:21:24.896Z,7.17
2023-04-08T00:26:17.429Z,7.15
2023-04-08T00:31:10.391Z,7.14
2023-04-08T00:36:07.169Z,7.12
2023-04-08T00:40:57.090Z,7.10
2023-04-08T00:46:01.879Z,7.05
2023-04-08T00:50:56.757Z,7.05
2023-04-08T00:55:52.297Z,7.08
2023-04-08T01:00:50.410Z,7.10
2023-04-08T01:05:54.893Z,7.14
2023-04-08T01:10:54.810Z,7.09
2023-04-08T01:15:50.105Z,7.02
2023-04-08T01:20:42.360Z,7.09
2023-04-08T01:25:36.545Z,7.10
2023-04-08T01:30:31.972Z,7.15
2023-04-08T01:35:28.902Z,7.10
2023-04-08T01:40:23.050Z,7.13
2023-04-08T01:45:18.940Z,7.16
2023-04-08T01:50:17.324Z,7.14
2023-04-08T01:55:12.833Z,7.10
2023-04-08T02:00:10.402Z,7.15
2023-04-08T02:05:19.530Z,7.20
2023-04-08T02:10:11.625Z,7.09
2023-04-08T02:15:02.331Z,7.11
2023-04-08T02:20:10.633Z,7.08
2023-04-08T02:25:08.771Z,7.14
2023-04-08T02:30:07.045Z,7.17
2023-04-08T02:35:04.660Z,7.10
2023-04-08T02:39:59.512Z,7.09
2023-04-08T02:44:57.673Z,7.09
2023-04-08T02:49:53.837Z,7.05
2023-04-08T02:54:45.567Z,7.09
2023-04-08T02:59:41.128Z,7.10
2023-04-08T03:04:34.452Z,7.02
2023-04-08T03:09:28.186Z,7.10
2023-04-08T03:14:20.379Z,7.14
2023-04-08T03:19:11.942Z,7.08
2023-04-08T03:24:07.076Z,7.11
2023-04-08T03:29:03.698Z,7.14
2023-04-08T03:33:57.297Z,7.11
2023-04-08T03:38:48.518Z,7.12
2023-04-08T03:43:47.358Z,7.10
2023-04-08T03:48:40.660Z,7.07
2023-04-08T03:53:34.391Z,6.98
2023-04-08T03:58:26.767Z,6.99
2023-04-08T04:03:21.002Z,6.91
2023-04-08T04:08:13.741Z,6.96
2023-04-08T04:13:06.211Z,6.97
2023-04-08T04:17:58.295Z,6.93
2023-04-08T04:22:54.908Z,6.87
2023-04-08T04:27:51.414Z,6.86
2023-04-08T04:32:49.870Z,6.76
2023-04-08T04:37:44.376Z,6.79
2023-04-08T04:42:38.212Z,6.61
2023-04-08T04:47:32.984Z,6.68
2023-04-08T04:52:27.527Z,6.62
2023-04-08T04:57:21.133Z,6.46
2023-04-08T05:02:15.835Z,6.36
2023-04-08T05:07:14.524Z,6.33
2023-04-08T05:12:05.351Z,6.26
2023-04-08T05:17:00.030Z,6.28
2023-04-08T05:22:02.346Z,6.22
2023-04-08T05:26:53.621Z,6.26
2023-04-08T05:31:46.008Z,6.18
2023-04-08T05:36:37.381Z,6.20
2023-04-08T05:41:31.461Z,6.20
2023-04-08T05:46:23.345Z,6.10
2023-04-08T05:51:18.517Z,6.05
2023-04-08T05:56:09.436Z,5.95
2023-04-08T06:01:09.068Z,5.99
2023-04-08T06:06:03.721Z,6.02
2023-04-08T06:10:55.764Z,6.03
2023-04-08T06:15:49.150Z,6.02
2023-04-08T06:20:45.175Z,6.07
2023-04-08T06:25:37.960Z,5.97
2023-04-08T06:30:29.346Z,5.98
2023-04-08T06:35:25.788Z,6.00
2023-04-08T06:40:23.088Z,5.91
2023-04-08T06:45:17.169Z,5.90
2023-04-08T06:50:10.523Z,5.86
2023-04-08T06:55:03.357Z,5.78
2023-04-08T06:59:58.032Z,5.80
2023-04-08T07:04:49.906Z,5.79
2023-04-08T07:09:46.827Z,5.82
2023-04-08T07:14:40.511Z,5.92
2023-04-08T07:19:38.737Z,6.00
2023-04-08T07:24:32.311Z,6.04
2023-04-08T07:29:29.540Z,6.06
2023-04-08T07:34:26.708Z,6.08
2023-04-08T07:39:25.101Z,6.15
2023-04-08T07:44:20.356Z,6.27
2023-04-08T07:49:15.480Z,6.33
2023-04-08T07:54:06.275Z,6.42
2023-04-08T07:59:03.335Z,6.47
2023-04-08T08:03:55.518Z,6.56
2023-04-08T08:08:49.997Z,6.61
2023-04-08T08:13:44.102Z,6.62
2023-04-08T08:18:43.697Z,6.60
2023-04-08T08:23:34.757Z,6.74
2023-04-08T08:28:27.492Z,6.80
2023-04-08T08:33:18.226Z,6.78
2023-04-08T08:38:13.688Z,6.93
2023-04-08T08:43:07.948Z,6.95
2023-04-08T08:48:00.650Z,6.99
2023-04-08T08:52:56.245Z,7.15
2023-04-08T08:57:53.849Z,7.20
2023-04-08T09:02:45.777Z,7.31
2023-04-08T09:07:43.143Z,7.45
2023-04-08T09:12:40.199Z,7.63
2023-04-08T09:17:41.934Z,7.77
2023-04-08T09:22:36.553Z,7.83
2023-04-08T09:27:38.560Z,7.99
2023-04-08T09:32:56.056Z,8.22
2023-04-08T09:37:50.393Z,8.50
2023-04-08T09:42:47.339Z,9.03
2023-04-08T09:47:53.328Z,9.95
2023-04-08T09:52:55.912Z,10.76
2023-04-08T09:57:57.213Z,11.30
2023-04-08T10:03:07.915Z,11.76
2023-04-08T10:08:03.517Z,12.36
2023-04-08T10:12:58.176Z,12.71
2023-04-08T10:17:52.567Z,13.27
2023-04-08T10:22:53.152Z,13.58
2023-04-08T10:27:50.574Z,13.65
2023-04-08T10:32:46.187Z,13.96
2023-04-08T10:37:40.060Z,13.99
2023-04-08T10:42:38.912Z,14.01
2023-04-08T10:47:44.974Z,13.55
2023-04-08T10:52:38.838Z,13.59
2023-04-08T10:57:31.420Z,13.63
2023-04-08T11:02:23.748Z,13.81
2023-04-08T11:07:18.444Z,13.65
2023-04-08T11:12:09.423Z,13.87
2023-04-08T11:17:02.469Z,13.67
2023-04-08T11:22:05.453Z,13.71
2023-04-08T11:26:59.962Z,13.60
2023-04-08T11:31:55.448Z,13.81
2023-04-08T11:36:48.756Z,14.13
2023-04-08T11:41:44.153Z,14.28
2023-04-08T11:46:43.836Z,14.40
2023-04-08T11:51:36.031Z,14.75
2023-04-08T11:56:27.398Z,15.00
2023-04-08T12:01:22.214Z,14.76
2023-04-08T12:06:18.147Z,14.58
2023-04-08T12:11:19.493Z,14.79
2023-04-08T12:16:14.780Z,15.00
2023-04-08T12:26:18.389Z,14.55
2023-04-08T12:31:09.516Z,14.57
2023-04-08T12:36:02.097Z,14.58
2023-04-08T12:40:52.936Z,14.40
2023-04-08T12:45:49.428Z,14.50
2023-04-08T12:50:40.079Z,14.66
2023-04-08T12:55:31.299Z,14.84
2023-04-08T13:00:23.017Z,14.97
2023-04-08T13:05:19.809Z,14.90
2023-04-08T13:10:17.485Z,14.46
2023-04-08T13:15:11.320Z,14.63
2023-04-08T13:20:16.436Z,14.72
2023-04-08T13:25:11.287Z,14.66
2023-04-08T13:30:01.698Z,15.00
2023-04-08T13:34:52.350Z,14.63
2023-04-08T13:39:42.734Z,14.66
2023-04-08T13:44:36.558Z,14.97
2023-04-08T13:49:28.406Z,14.60
2023-04-08T13:54:21.928Z,15.06
2023-04-08T13:59:14.131Z,14.77
2023-04-08T14:04:09.992Z,15.01
2023-04-08T14:09:02.012Z,15.27
2023-04-08T14:13:54.207Z,15.17
2023-04-08T14:18:45.034Z,14.87
2023-04-08T14:23:41.803Z,15.72
2023-04-08T14:28:35.357Z,15.97
2023-04-08T14:33:28.049Z,16.08
2023-04-08T14:38:19.329Z,15.90
2023-04-08T14:43:14.374Z,15.44
2023-04-08T14:48:12.309Z,15.29
2023-04-08T14:53:03.431Z,14.89
2023-04-08T14:57:54.131Z,14.84
2023-04-08T15:02:47.687Z,14.48
2023-04-08T15:07:42.601Z,14.20
2023-04-08T15:12:33.948Z,14.05
2023-04-08T15:17:26.532Z,13.95
2023-04-08T15:22:21.335Z,13.72
2023-04-08T15:27:14.957Z,13.73
2023-04-08T15:32:13.706Z,13.61
2023-04-08T15:37:04.571Z,13.50
2023-04-08T15:42:05.786Z,13.26
2023-04-08T15:46:58.188Z,13.31
2023-04-08T15:51:51.791Z,13.42
2023-04-08T15:56:53.422Z,13.67
2023-04-08T16:01:58.608Z,13.61
2023-04-08T16:06:50.452Z,13.78
2023-04-08T16:11:42.429Z,13.76
2023-04-08T16:16:38.971Z,13.64
2023-04-08T16:21:35.662Z,13.57
2023-04-08T16:26:28.398Z,13.28
2023-04-08T16:31:21.973Z,13.21
2023-04-08T16:36:16.653Z,13.19
2023-04-08T16:41:23.149Z,13.12
2023-04-08T16:46:16.540Z,13.21
2023-04-08T16:51:08.704Z,13.03
2023-04-08T16:56:02.743Z,12.81
2023-04-08T17:00:59.982Z,12.77
2023-04-08T17:05:51.238Z,12.59
2023-04-08T17:10:44.501Z,12.35
2023-04-08T17:15:35.326Z,12.32
2023-04-08T17:20:31.806Z,12.15
2023-04-08T17:25:22.259Z,12.05
2023-04-08T17:30:14.052Z,11.82
2023-04-08T17:35:04.966Z,11.65
2023-04-08T17:39:58.454Z,11.65
2023-04-08T17:44:52.948Z,11.51
2023-04-08T17:49:44.090Z,11.29
2023-04-08T17:54:37.573Z,11.27
2023-04-08T17:59:38.143Z,11.21
2023-04-08T18:04:30.294Z,11.06
2023-04-08T18:09:25.545Z,11.02
2023-04-08T18:14:18.910Z,10.88
2023-04-08T18:19:13.545Z,10.86
2023-04-08T18:24:06.363Z,10.77
2023-04-08T18:28:58.261Z,10.68
2023-04-08T18:33:49.226Z,10.61
2023-04-08T18:39:00.246Z,10.58
2023-04-08T18:43:58.814Z,10.50
2023-04-08T18:48:51.366Z,10.43
2023-04-08T18:53:43.175Z,10.37
2023-04-08T18:58:36.256Z,10.33
2023-04-08T19:03:28.622Z,10.17
2023-04-08T19:08:21.280Z,10.15
2023-04-08T19:13:15.059Z,10.08
2023-04-08T19:18:11.109Z,10.03
2023-04-08T19:23:03.053Z,10.01
2023-04-08T19:27:58.452Z,9.93
2023-04-08T19:32:49.258Z,9.81
2023-04-08T19:37:42.327Z,9.65
2023-04-08T19:42:33.400Z,9.49
2023-04-08T19:47:27.988Z,9.32
2023-04-08T19:52:18.026Z,9.25
2023-04-08T19:57:14.486Z,9.20
2023-04-08T20:02:09.926Z,9.15
2023-04-08T20:07:03.925Z,9.09
2023-04-08T20:11:57.325Z,8.97
2023-04-08T20:16:51.058Z,8.97
2023-04-08T20:21:41.395Z,8.93
2023-04-08T20:26:33.233Z,8.82
2023-04-08T20:31:31.596Z,8.73
2023-04-08T20:36:25.549Z,8.70
2023-04-08T20:41:20.667Z,8.70
2023-04-08T20:46:11.147Z,8.72
2023-04-08T20:51:01.506Z,8.70
2023-04-08T20:56:03.125Z,8.62
2023-04-08T21:00:56.198Z,8.54
2023-04-08T21:06:03.748Z,8.42
2023-04-08T21:10:54.995Z,8.35
2023-04-08T21:15:54.816Z,8.29
2023-04-08T21:20:45.847Z,8.35
2023-04-08T21:25:36.834Z,8.32
2023-04-08T21:30:28.407Z,8.31
2023-04-08T21:35:21.670Z,8.29
2023-04-08T21:40:16.944Z,8.18
2023-04-08T21:45:15.909Z,8.22
2023-04-08T21:50:09.432Z,8.20
2023-04-08T21:55:03.256Z,8.17
2023-04-08T21:59:54.201Z,8.23
2023-04-08T22:04:46.850Z,8.18
2023-04-08T22:09:37.589Z,8.19
2023-04-08T22:14:30.893Z,7.88
2023-04-08T22:19:24.926Z,7.91
2023-04-08T22:24:19.073Z,7.88
2023-04-08T22:29:11.463Z,8.06
2023-04-08T22:34:03.961Z,8.14
2023-04-08T22:38:57.063Z,8.06
2023-04-08T22:43:47.614Z,8.10
2023-04-08T22:48:38.777Z,8.18
2023-04-08T22:53:32.736Z,8.14
2023-04-08T22:58:24.671Z,8.06
2023-04-08T23:03:20.781Z,7.92
2023-04-08T23:08:14.690Z,7.90
2023-04-08T23:13:15.697Z,7.81
2023-04-08T23:18:08.801Z,7.87
2023-04-08T23:23:03.025Z,7.83
2023-04-08T23:28:02.110Z,7.82
2023-04-08T23:32:55.416Z,7.85
2023-04-08T23:37:49.148Z,7.88
2023-04-08T23:42:43.093Z,7.89
2023-04-08T23:47:42.203Z,7.81
2023-04-08T23:52:38.041Z,7.76
2023-04-08T23:57:30.212Z,7.74
